sensor_id;sensor_type;location;lat;lon;timestamp;P1;durP1;ratioP1;P2;durP2;ratioP2
74335;SDS011;62755;-33.398;-70.572;2024-03-25T00:01:00;11.57;;;2.65;;
74335;SDS011;62755;-33.398;-70.572;2024-03-25T00:03:30;7.43;;;2.30;;
74335;SDS011;62755;-33.398;-70.572;2024-03-25T00:06:01;8.00;;;2.08;;
74335;SDS011;62755;-33.398;-70.572;2024-03-25T00:08:32;10.93;;;2.58;;
74335;SDS011;62755;-33.398;-70.572;2024-03-25T00:11:01;11.20;;;3.03;;
74335;SDS011;62755;-33.398;-70.572;2024-03-25T00:13:31;11.85;;;4.63;;
74335;SDS011;62755;-33.398;-70.572;2024-03-25T00:15:59;10.48;;;3.03;;
74335;SDS011;62755;-33.398;-70.572;2024-03-25T00:18:31;13.65;;;3.10;;
74335;SDS011;62755;-33.398;-70.572;2024-03-25T00:21:01;10.45;;;2.15;;
74335;SDS011;62755;-33.398;-70.572;2024-03-25T00:23:31;11.93;;;2.38;;
74335;SDS011;62755;-33.398;-70.572;2024-03-25T00:25:59;16.23;;;2.40;;
74335;SDS011;62755;-33.398;-70.572;2024-03-25T00:28:29;11.45;;;2.38;;
74335;SDS011;62755;-33.398;-70.572;2024-03-25T00:30:57;14.55;;;2.08;;
74335;SDS011;62755;-33.398;-70.572;2024-03-25T00:33:27;12.13;;;2.70;;
74335;SDS011;62755;-33.398;-70.572;2024-03-25T00:35:56;11.45;;;2.80;;
74335;SDS011;62755;-33.398;-70.572;2024-03-25T00:38:27;11.18;;;2.47;;
74335;SDS011;62755;-33.398;-70.572;2024-03-25T00:40:56;11.45;;;2.90;;
74335;SDS011;62755;-33.398;-70.572;2024-03-25T00:43:26;16.48;;;2.65;;
74335;SDS011;62755;-33.398;-70.572;2024-03-25T00:45:54;16.90;;;3.05;;
74335;SDS011;62755;-33.398;-70.572;2024-03-25T00:48:24;18.25;;;2.90;;
74335;SDS011;62755;-33.398;-70.572;2024-03-25T00:50:53;10.48;;;2.85;;
74335;SDS011;62755;-33.398;-70.572;2024-03-25T00:53:22;14.68;;;3.33;;
74335;SDS011;62755;-33.398;-70.572;2024-03-25T00:55:54;40.08;;;20.60;;
74335;SDS011;62755;-33.398;-70.572;2024-03-25T00:58:24;19.90;;;11.80;;
74335;SDS011;62755;-33.398;-70.572;2024-03-25T01:00:53;24.33;;;12.63;;
74335;SDS011;62755;-33.398;-70.572;2024-03-25T01:03:23;16.88;;;6.32;;
74335;SDS011;62755;-33.398;-70.572;2024-03-25T01:05:51;15.25;;;4.00;;
74335;SDS011;62755;-33.398;-70.572;2024-03-25T01:08:21;11.27;;;3.20;;
74335;SDS011;62755;-33.398;-70.572;2024-03-25T01:10:49;14.57;;;3.03;;
74335;SDS011;62755;-33.398;-70.572;2024-03-25T01:13:21;13.65;;;2.88;;
74335;SDS011;62755;-33.398;-70.572;2024-03-25T01:15:50;17.60;;;2.85;;
74335;SDS011;62755;-33.398;-70.572;2024-03-25T01:18:19;17.25;;;2.85;;
74335;SDS011;62755;-33.398;-70.572;2024-03-25T01:20:48;14.20;;;3.17;;
74335;SDS011;62755;-33.398;-70.572;2024-03-25T01:23:18;17.75;;;2.88;;
74335;SDS011;62755;-33.398;-70.572;2024-03-25T01:25:46;12.90;;;3.00;;
74335;SDS011;62755;-33.398;-70.572;2024-03-25T01:28:16;10.25;;;2.90;;
74335;SDS011;62755;-33.398;-70.572;2024-03-25T01:30:47;9.73;;;3.47;;
74335;SDS011;62755;-33.398;-70.572;2024-03-25T01:33:17;15.80;;;3.28;;
74335;SDS011;62755;-33.398;-70.572;2024-03-25T01:35:45;12.25;;;3.75;;
74335;SDS011;62755;-33.398;-70.572;2024-03-25T01:38:16;15.48;;;3.47;;
74335;SDS011;62755;-33.398;-70.572;2024-03-25T01:40:44;10.48;;;3.00;;
74335;SDS011;62755;-33.398;-70.572;2024-03-25T01:43:14;7.97;;;2.80;;
74335;SDS011;62755;-33.398;-70.572;2024-03-25T01:45:42;18.00;;;3.70;;
74335;SDS011;62755;-33.398;-70.572;2024-03-25T01:48:15;17.55;;;3.58;;
74335;SDS011;62755;-33.398;-70.572;2024-03-25T01:50:43;20.05;;;3.05;;
74335;SDS011;62755;-33.398;-70.572;2024-03-25T01:53:14;13.45;;;3.00;;
74335;SDS011;62755;-33.398;-70.572;2024-03-25T01:55:42;14.10;;;3.22;;
74335;SDS011;62755;-33.398;-70.572;2024-03-25T01:58:12;11.65;;;2.58;;
74335;SDS011;62755;-33.398;-70.572;2024-03-25T02:00:42;14.38;;;2.75;;
74335;SDS011;62755;-33.398;-70.572;2024-03-25T02:03:14;10.45;;;2.38;;
74335;SDS011;62755;-33.398;-70.572;2024-03-25T02:05:43;13.55;;;1.90;;
74335;SDS011;62755;-33.398;-70.572;2024-03-25T02:08:13;11.05;;;2.78;;
74335;SDS011;62755;-33.398;-70.572;2024-03-25T02:10:42;11.02;;;3.58;;
74335;SDS011;62755;-33.398;-70.572;2024-03-25T02:13:12;15.82;;;2.88;;
74335;SDS011;62755;-33.398;-70.572;2024-03-25T02:15:41;16.15;;;3.08;;
74335;SDS011;62755;-33.398;-70.572;2024-03-25T02:18:11;14.80;;;3.17;;
74335;SDS011;62755;-33.398;-70.572;2024-03-25T02:20:43;17.98;;;3.20;;
74335;SDS011;62755;-33.398;-70.572;2024-03-25T02:23:13;13.23;;;3.75;;
74335;SDS011;62755;-33.398;-70.572;2024-03-25T02:25:42;17.15;;;4.43;;
74335;SDS011;62755;-33.398;-70.572;2024-03-25T02:28:14;10.77;;;3.95;;
74335;SDS011;62755;-33.398;-70.572;2024-03-25T02:30:42;17.10;;;3.78;;
74335;SDS011;62755;-33.398;-70.572;2024-03-25T02:33:12;13.45;;;3.65;;
74335;SDS011;62755;-33.398;-70.572;2024-03-25T02:35:40;19.83;;;3.63;;
74335;SDS011;62755;-33.398;-70.572;2024-03-25T02:38:12;13.80;;;4.05;;
74335;SDS011;62755;-33.398;-70.572;2024-03-25T02:40:41;7.90;;;3.28;;
74335;SDS011;62755;-33.398;-70.572;2024-03-25T02:43:11;18.15;;;2.85;;
74335;SDS011;62755;-33.398;-70.572;2024-03-25T02:45:41;11.82;;;3.55;;
74335;SDS011;62755;-33.398;-70.572;2024-03-25T02:48:11;19.58;;;2.95;;
74335;SDS011;62755;-33.398;-70.572;2024-03-25T02:50:40;11.27;;;2.95;;
74335;SDS011;62755;-33.398;-70.572;2024-03-25T02:53:09;10.85;;;2.90;;
74335;SDS011;62755;-33.398;-70.572;2024-03-25T02:55:38;17.00;;;2.70;;
74335;SDS011;62755;-33.398;-70.572;2024-03-25T02:58:08;12.88;;;2.80;;
74335;SDS011;62755;-33.398;-70.572;2024-03-25T03:00:38;9.70;;;2.53;;
74335;SDS011;62755;-33.398;-70.572;2024-03-25T03:03:08;12.02;;;2.22;;
74335;SDS011;62755;-33.398;-70.572;2024-03-25T03:05:36;11.95;;;2.40;;
74335;SDS011;62755;-33.398;-70.572;2024-03-25T03:08:06;8.25;;;2.25;;
74335;SDS011;62755;-33.398;-70.572;2024-03-25T03:10:35;10.23;;;3.40;;
74335;SDS011;62755;-33.398;-70.572;2024-03-25T03:13:04;11.27;;;3.25;;
74335;SDS011;62755;-33.398;-70.572;2024-03-25T03:15:33;15.15;;;3.15;;
74335;SDS011;62755;-33.398;-70.572;2024-03-25T03:18:05;11.43;;;3.28;;
74335;SDS011;62755;-33.398;-70.572;2024-03-25T03:20:33;9.93;;;2.53;;
74335;SDS011;62755;-33.398;-70.572;2024-03-25T03:23:03;12.27;;;2.83;;
74335;SDS011;62755;-33.398;-70.572;2024-03-25T03:25:32;12.60;;;2.80;;
74335;SDS011;62755;-33.398;-70.572;2024-03-25T03:28:01;16.08;;;2.83;;
74335;SDS011;62755;-33.398;-70.572;2024-03-25T03:30:30;9.10;;;2.28;;
74335;SDS011;62755;-33.398;-70.572;2024-03-25T03:33:01;20.33;;;2.80;;
74335;SDS011;62755;-33.398;-70.572;2024-03-25T03:35:32;14.60;;;2.38;;
74335;SDS011;62755;-33.398;-70.572;2024-03-25T03:38:02;9.98;;;2.78;;
74335;SDS011;62755;-33.398;-70.572;2024-03-25T03:40:31;14.77;;;2.80;;
74335;SDS011;62755;-33.398;-70.572;2024-03-25T03:43:01;15.68;;;2.53;;
74335;SDS011;62755;-33.398;-70.572;2024-03-25T03:45:32;11.85;;;2.75;;
74335;SDS011;62755;-33.398;-70.572;2024-03-25T03:48:03;8.60;;;2.22;;
74335;SDS011;62755;-33.398;-70.572;2024-03-25T03:50:33;9.70;;;2.28;;
74335;SDS011;62755;-33.398;-70.572;2024-03-25T03:53:04;8.52;;;2.03;;
74335;SDS011;62755;-33.398;-70.572;2024-03-25T03:55:33;13.32;;;2.55;;
74335;SDS011;62755;-33.398;-70.572;2024-03-25T03:58:02;9.18;;;2.05;;
74335;SDS011;62755;-33.398;-70.572;2024-03-25T04:00:33;17.58;;;2.38;;
74335;SDS011;62755;-33.398;-70.572;2024-03-25T04:03:03;12.35;;;2.15;;
74335;SDS011;62755;-33.398;-70.572;2024-03-25T04:05:34;9.70;;;2.38;;
74335;SDS011;62755;-33.398;-70.572;2024-03-25T04:08:04;13.00;;;3.08;;
74335;SDS011;62755;-33.398;-70.572;2024-03-25T04:10:34;15.48;;;2.28;;
74335;SDS011;62755;-33.398;-70.572;2024-03-25T04:13:04;14.02;;;2.88;;
74335;SDS011;62755;-33.398;-70.572;2024-03-25T04:15:33;9.40;;;1.92;;
74335;SDS011;62755;-33.398;-70.572;2024-03-25T04:18:03;12.07;;;2.05;;
74335;SDS011;62755;-33.398;-70.572;2024-03-25T04:20:38;12.50;;;2.28;;
74335;SDS011;62755;-33.398;-70.572;2024-03-25T04:23:08;9.75;;;2.00;;
74335;SDS011;62755;-33.398;-70.572;2024-03-25T04:25:36;11.60;;;2.13;;
74335;SDS011;62755;-33.398;-70.572;2024-03-25T04:28:06;8.32;;;2.53;;
74335;SDS011;62755;-33.398;-70.572;2024-03-25T04:30:34;11.02;;;2.15;;
74335;SDS011;62755;-33.398;-70.572;2024-03-25T04:33:04;12.48;;;2.15;;
74335;SDS011;62755;-33.398;-70.572;2024-03-25T04:35:34;12.75;;;2.28;;
74335;SDS011;62755;-33.398;-70.572;2024-03-25T04:38:06;9.98;;;2.28;;
74335;SDS011;62755;-33.398;-70.572;2024-03-25T04:40:34;16.73;;;2.08;;
74335;SDS011;62755;-33.398;-70.572;2024-03-25T04:43:02;12.77;;;2.15;;
74335;SDS011;62755;-33.398;-70.572;2024-03-25T04:45:30;12.88;;;2.00;;
74335;SDS011;62755;-33.398;-70.572;2024-03-25T04:47:58;7.47;;;1.80;;
74335;SDS011;62755;-33.398;-70.572;2024-03-25T04:50:26;10.35;;;1.98;;
74335;SDS011;62755;-33.398;-70.572;2024-03-25T04:52:56;11.05;;;2.15;;
74335;SDS011;62755;-33.398;-70.572;2024-03-25T04:55:24;12.13;;;2.20;;
74335;SDS011;62755;-33.398;-70.572;2024-03-25T04:57:52;13.77;;;2.08;;
74335;SDS011;62755;-33.398;-70.572;2024-03-25T05:00:21;9.27;;;2.28;;
74335;SDS011;62755;-33.398;-70.572;2024-03-25T05:02:49;11.40;;;2.20;;
74335;SDS011;62755;-33.398;-70.572;2024-03-25T05:05:17;10.15;;;2.30;;
74335;SDS011;62755;-33.398;-70.572;2024-03-25T05:07:45;9.57;;;2.10;;
74335;SDS011;62755;-33.398;-70.572;2024-03-25T05:10:14;8.65;;;2.28;;
74335;SDS011;62755;-33.398;-70.572;2024-03-25T05:12:42;16.70;;;2.10;;
74335;SDS011;62755;-33.398;-70.572;2024-03-25T05:15:10;13.07;;;2.13;;
74335;SDS011;62755;-33.398;-70.572;2024-03-25T05:17:38;11.57;;;2.08;;
74335;SDS011;62755;-33.398;-70.572;2024-03-25T05:20:06;8.23;;;2.25;;
74335;SDS011;62755;-33.398;-70.572;2024-03-25T05:22:35;9.10;;;2.10;;
74335;SDS011;62755;-33.398;-70.572;2024-03-25T05:25:03;10.30;;;2.47;;
74335;SDS011;62755;-33.398;-70.572;2024-03-25T05:27:34;5.43;;;1.80;;
74335;SDS011;62755;-33.398;-70.572;2024-03-25T05:30:02;11.82;;;2.22;;
74335;SDS011;62755;-33.398;-70.572;2024-03-25T05:32:30;12.55;;;1.80;;
74335;SDS011;62755;-33.398;-70.572;2024-03-25T05:34:58;9.82;;;2.40;;
74335;SDS011;62755;-33.398;-70.572;2024-03-25T05:37:26;9.25;;;2.30;;
74335;SDS011;62755;-33.398;-70.572;2024-03-25T05:39:54;12.65;;;2.05;;
74335;SDS011;62755;-33.398;-70.572;2024-03-25T05:42:22;9.98;;;2.33;;
74335;SDS011;62755;-33.398;-70.572;2024-03-25T05:44:52;11.10;;;2.03;;
74335;SDS011;62755;-33.398;-70.572;2024-03-25T05:47:20;8.43;;;1.80;;
74335;SDS011;62755;-33.398;-70.572;2024-03-25T05:49:48;5.03;;;1.88;;
74335;SDS011;62755;-33.398;-70.572;2024-03-25T05:52:16;13.27;;;2.00;;
74335;SDS011;62755;-33.398;-70.572;2024-03-25T05:54:44;12.75;;;2.15;;
74335;SDS011;62755;-33.398;-70.572;2024-03-25T05:57:12;13.05;;;2.17;;
74335;SDS011;62755;-33.398;-70.572;2024-03-25T05:59:40;9.07;;;2.22;;
74335;SDS011;62755;-33.398;-70.572;2024-03-25T06:02:10;8.52;;;2.00;;
74335;SDS011;62755;-33.398;-70.572;2024-03-25T06:04:38;8.35;;;1.98;;
74335;SDS011;62755;-33.398;-70.572;2024-03-25T06:07:06;16.25;;;2.03;;
74335;SDS011;62755;-33.398;-70.572;2024-03-25T06:09:34;10.30;;;2.17;;
74335;SDS011;62755;-33.398;-70.572;2024-03-25T06:12:02;13.05;;;2.15;;
74335;SDS011;62755;-33.398;-70.572;2024-03-25T06:14:30;12.10;;;1.92;;
74335;SDS011;62755;-33.398;-70.572;2024-03-25T06:16:59;10.55;;;2.10;;
74335;SDS011;62755;-33.398;-70.572;2024-03-25T06:19:29;13.40;;;1.90;;
74335;SDS011;62755;-33.398;-70.572;2024-03-25T06:21:58;9.15;;;2.22;;
74335;SDS011;62755;-33.398;-70.572;2024-03-25T06:24:26;8.13;;;2.28;;
74335;SDS011;62755;-33.398;-70.572;2024-03-25T06:26:54;9.00;;;1.80;;
74335;SDS011;62755;-33.398;-70.572;2024-03-25T06:29:22;9.40;;;1.90;;
74335;SDS011;62755;-33.398;-70.572;2024-03-25T06:31:50;8.65;;;2.03;;
74335;SDS011;62755;-33.398;-70.572;2024-03-25T06:34:37;8.35;;;1.95;;
74335;SDS011;62755;-33.398;-70.572;2024-03-25T06:37:05;5.05;;;1.70;;
74335;SDS011;62755;-33.398;-70.572;2024-03-25T06:39:33;6.00;;;1.60;;
74335;SDS011;62755;-33.398;-70.572;2024-03-25T06:42:02;8.95;;;1.98;;
74335;SDS011;62755;-33.398;-70.572;2024-03-25T06:44:30;10.75;;;2.28;;
74335;SDS011;62755;-33.398;-70.572;2024-03-25T06:46:58;7.25;;;2.10;;
74335;SDS011;62755;-33.398;-70.572;2024-03-25T06:49:26;9.13;;;2.35;;
74335;SDS011;62755;-33.398;-70.572;2024-03-25T06:51:56;12.02;;;2.22;;
74335;SDS011;62755;-33.398;-70.572;2024-03-25T06:54:24;5.45;;;2.03;;
74335;SDS011;62755;-33.398;-70.572;2024-03-25T06:56:52;4.35;;;1.70;;
74335;SDS011;62755;-33.398;-70.572;2024-03-25T06:59:20;8.75;;;2.03;;
74335;SDS011;62755;-33.398;-70.572;2024-03-25T07:01:48;11.18;;;2.60;;
74335;SDS011;62755;-33.398;-70.572;2024-03-25T07:04:16;7.72;;;2.13;;
74335;SDS011;62755;-33.398;-70.572;2024-03-25T07:06:43;21.20;;;2.17;;
74335;SDS011;62755;-33.398;-70.572;2024-03-25T07:09:13;5.80;;;1.85;;
74335;SDS011;62755;-33.398;-70.572;2024-03-25T07:11:41;11.00;;;2.35;;
74335;SDS011;62755;-33.398;-70.572;2024-03-25T07:14:09;10.55;;;2.00;;
74335;SDS011;62755;-33.398;-70.572;2024-03-25T07:16:37;8.52;;;2.08;;
74335;SDS011;62755;-33.398;-70.572;2024-03-25T07:19:05;11.07;;;2.35;;
74335;SDS011;62755;-33.398;-70.572;2024-03-25T07:21:33;10.55;;;2.10;;
74335;SDS011;62755;-33.398;-70.572;2024-03-25T07:24:01;7.10;;;2.05;;
74335;SDS011;62755;-33.398;-70.572;2024-03-25T07:26:31;7.05;;;2.05;;
74335;SDS011;62755;-33.398;-70.572;2024-03-25T07:28:59;6.22;;;1.70;;
74335;SDS011;62755;-33.398;-70.572;2024-03-25T07:31:27;8.93;;;1.98;;
74335;SDS011;62755;-33.398;-70.572;2024-03-25T07:33:55;11.27;;;1.95;;
74335;SDS011;62755;-33.398;-70.572;2024-03-25T07:36:23;15.90;;;2.38;;
74335;SDS011;62755;-33.398;-70.572;2024-03-25T07:38:51;10.02;;;2.13;;
74335;SDS011;62755;-33.398;-70.572;2024-03-25T07:41:19;8.75;;;2.33;;
74335;SDS011;62755;-33.398;-70.572;2024-03-25T07:43:48;12.23;;;1.92;;
74335;SDS011;62755;-33.398;-70.572;2024-03-25T07:46:16;10.20;;;1.75;;
74335;SDS011;62755;-33.398;-70.572;2024-03-25T07:48:44;8.98;;;1.88;;
74335;SDS011;62755;-33.398;-70.572;2024-03-25T07:51:12;14.30;;;1.98;;
74335;SDS011;62755;-33.398;-70.572;2024-03-25T07:53:40;6.45;;;2.15;;
74335;SDS011;62755;-33.398;-70.572;2024-03-25T07:56:08;3.80;;;1.90;;
74335;SDS011;62755;-33.398;-70.572;2024-03-25T07:58:36;14.88;;;1.88;;
74335;SDS011;62755;-33.398;-70.572;2024-03-25T08:01:06;11.48;;;2.72;;
74335;SDS011;62755;-33.398;-70.572;2024-03-25T08:03:34;9.68;;;1.88;;
74335;SDS011;62755;-33.398;-70.572;2024-03-25T08:06:02;12.15;;;2.28;;
74335;SDS011;62755;-33.398;-70.572;2024-03-25T08:08:30;9.65;;;2.10;;
74335;SDS011;62755;-33.398;-70.572;2024-03-25T08:10:58;8.40;;;1.88;;
74335;SDS011;62755;-33.398;-70.572;2024-03-25T08:13:26;7.22;;;1.90;;
74335;SDS011;62755;-33.398;-70.572;2024-03-25T08:15:54;6.00;;;1.55;;
74335;SDS011;62755;-33.398;-70.572;2024-03-25T08:18:24;9.45;;;1.73;;
74335;SDS011;62755;-33.398;-70.572;2024-03-25T08:20:52;11.73;;;1.75;;
74335;SDS011;62755;-33.398;-70.572;2024-03-25T08:23:20;5.70;;;1.63;;
74335;SDS011;62755;-33.398;-70.572;2024-03-25T08:25:48;7.65;;;2.08;;
74335;SDS011;62755;-33.398;-70.572;2024-03-25T08:28:17;10.50;;;1.90;;
74335;SDS011;62755;-33.398;-70.572;2024-03-25T08:30:45;6.47;;;1.70;;
74335;SDS011;62755;-33.398;-70.572;2024-03-25T08:33:13;5.25;;;1.65;;
74335;SDS011;62755;-33.398;-70.572;2024-03-25T08:35:42;7.68;;;2.05;;
74335;SDS011;62755;-33.398;-70.572;2024-03-25T08:38:10;4.82;;;1.67;;
74335;SDS011;62755;-33.398;-70.572;2024-03-25T08:40:38;7.80;;;1.85;;
74335;SDS011;62755;-33.398;-70.572;2024-03-25T08:43:06;9.02;;;1.77;;
74335;SDS011;62755;-33.398;-70.572;2024-03-25T08:45:34;14.52;;;1.85;;
74335;SDS011;62755;-33.398;-70.572;2024-03-25T08:48:02;7.72;;;1.90;;
74335;SDS011;62755;-33.398;-70.572;2024-03-25T08:50:31;10.88;;;2.15;;
74335;SDS011;62755;-33.398;-70.572;2024-03-25T08:53:01;5.78;;;1.73;;
74335;SDS011;62755;-33.398;-70.572;2024-03-25T08:55:29;10.60;;;2.40;;
74335;SDS011;62755;-33.398;-70.572;2024-03-25T08:57:57;14.57;;;1.80;;
74335;SDS011;62755;-33.398;-70.572;2024-03-25T09:03:00;9.93;;;2.58;;
74335;SDS011;62755;-33.398;-70.572;2024-03-25T09:05:29;12.80;;;2.15;;
74335;SDS011;62755;-33.398;-70.572;2024-03-25T09:07:56;10.85;;;2.53;;
74335;SDS011;62755;-33.398;-70.572;2024-03-25T09:10:26;10.02;;;1.98;;
74335;SDS011;62755;-33.398;-70.572;2024-03-25T09:13:13;13.07;;;2.30;;
74335;SDS011;62755;-33.398;-70.572;2024-03-25T09:15:41;14.07;;;2.58;;
74335;SDS011;62755;-33.398;-70.572;2024-03-25T09:18:09;10.05;;;2.25;;
74335;SDS011;62755;-33.398;-70.572;2024-03-25T09:20:37;16.30;;;2.95;;
74335;SDS011;62755;-33.398;-70.572;2024-03-25T09:23:05;9.73;;;2.65;;
74335;SDS011;62755;-33.398;-70.572;2024-03-25T09:25:35;10.88;;;2.38;;
74335;SDS011;62755;-33.398;-70.572;2024-03-25T09:28:03;10.98;;;2.08;;
74335;SDS011;62755;-33.398;-70.572;2024-03-25T09:30:31;6.47;;;2.00;;
74335;SDS011;62755;-33.398;-70.572;2024-03-25T09:32:59;9.00;;;2.20;;
74335;SDS011;62755;-33.398;-70.572;2024-03-25T09:35:27;17.95;;;2.70;;
74335;SDS011;62755;-33.398;-70.572;2024-03-25T09:37:55;5.63;;;2.10;;
74335;SDS011;62755;-33.398;-70.572;2024-03-25T09:40:23;13.32;;;3.10;;
74335;SDS011;62755;-33.398;-70.572;2024-03-25T09:42:55;6.20;;;2.03;;
74335;SDS011;62755;-33.398;-70.572;2024-03-25T09:45:24;10.13;;;2.40;;
74335;SDS011;62755;-33.398;-70.572;2024-03-25T09:47:54;9.95;;;1.95;;
74335;SDS011;62755;-33.398;-70.572;2024-03-25T09:50:23;7.72;;;2.22;;
74335;SDS011;62755;-33.398;-70.572;2024-03-25T09:52:51;12.07;;;2.80;;
74335;SDS011;62755;-33.398;-70.572;2024-03-25T09:55:19;5.85;;;2.22;;
74335;SDS011;62755;-33.398;-70.572;2024-03-25T09:57:47;8.27;;;2.30;;
74335;SDS011;62755;-33.398;-70.572;2024-03-25T10:00:17;10.43;;;2.10;;
74335;SDS011;62755;-33.398;-70.572;2024-03-25T10:02:46;14.82;;;2.75;;
74335;SDS011;62755;-33.398;-70.572;2024-03-25T10:05:14;27.52;;;3.05;;
74335;SDS011;62755;-33.398;-70.572;2024-03-25T10:07:42;11.35;;;2.28;;
74335;SDS011;62755;-33.398;-70.572;2024-03-25T10:10:10;11.63;;;1.90;;
74335;SDS011;62755;-33.398;-70.572;2024-03-25T10:12:38;12.02;;;2.38;;
74335;SDS011;62755;-33.398;-70.572;2024-03-25T10:15:06;11.23;;;2.25;;
74335;SDS011;62755;-33.398;-70.572;2024-03-25T10:17:37;5.00;;;2.30;;
74335;SDS011;62755;-33.398;-70.572;2024-03-25T10:20:05;9.45;;;2.38;;
74335;SDS011;62755;-33.398;-70.572;2024-03-25T10:22:40;13.30;;;2.20;;
74335;SDS011;62755;-33.398;-70.572;2024-03-25T10:25:19;9.38;;;2.15;;
74335;SDS011;62755;-33.398;-70.572;2024-03-25T10:27:54;9.73;;;3.17;;
74335;SDS011;62755;-33.398;-70.572;2024-03-25T10:30:23;9.05;;;2.45;;
74335;SDS011;62755;-33.398;-70.572;2024-03-25T10:33:00;9.07;;;2.30;;
74335;SDS011;62755;-33.398;-70.572;2024-03-25T10:35:29;19.25;;;2.53;;
74335;SDS011;62755;-33.398;-70.572;2024-03-25T10:37:58;17.40;;;2.47;;
74335;SDS011;62755;-33.398;-70.572;2024-03-25T10:40:27;13.98;;;2.85;;
74335;SDS011;62755;-33.398;-70.572;2024-03-25T10:43:01;15.05;;;2.75;;
74335;SDS011;62755;-33.398;-70.572;2024-03-25T10:45:29;18.13;;;3.20;;
74335;SDS011;62755;-33.398;-70.572;2024-03-25T10:48:00;21.40;;;3.80;;
74335;SDS011;62755;-33.398;-70.572;2024-03-25T10:50:33;22.10;;;4.32;;
74335;SDS011;62755;-33.398;-70.572;2024-03-25T10:53:03;14.10;;;2.75;;
74335;SDS011;62755;-33.398;-70.572;2024-03-25T10:55:33;24.50;;;3.20;;
74335;SDS011;62755;-33.398;-70.572;2024-03-25T10:58:03;18.88;;;3.80;;
74335;SDS011;62755;-33.398;-70.572;2024-03-25T11:00:31;17.80;;;3.90;;
74335;SDS011;62755;-33.398;-70.572;2024-03-25T11:03:02;38.13;;;4.93;;
74335;SDS011;62755;-33.398;-70.572;2024-03-25T11:05:30;26.60;;;4.85;;
74335;SDS011;62755;-33.398;-70.572;2024-03-25T11:07:58;25.13;;;4.68;;
74335;SDS011;62755;-33.398;-70.572;2024-03-25T11:10:39;23.30;;;4.53;;
74335;SDS011;62755;-33.398;-70.572;2024-03-25T11:13:11;24.08;;;4.68;;
74335;SDS011;62755;-33.398;-70.572;2024-03-25T11:15:40;25.15;;;5.00;;
74335;SDS011;62755;-33.398;-70.572;2024-03-25T11:18:13;24.50;;;5.07;;
74335;SDS011;62755;-33.398;-70.572;2024-03-25T11:20:42;38.15;;;5.68;;
74335;SDS011;62755;-33.398;-70.572;2024-03-25T11:23:11;30.33;;;5.35;;
74335;SDS011;62755;-33.398;-70.572;2024-03-25T11:25:39;29.73;;;4.68;;
74335;SDS011;62755;-33.398;-70.572;2024-03-25T11:28:08;23.35;;;4.88;;
74335;SDS011;62755;-33.398;-70.572;2024-03-25T11:30:37;23.90;;;4.40;;
74335;SDS011;62755;-33.398;-70.572;2024-03-25T11:33:05;17.70;;;4.45;;
74335;SDS011;62755;-33.398;-70.572;2024-03-25T11:35:38;19.70;;;5.38;;
74335;SDS011;62755;-33.398;-70.572;2024-03-25T11:38:06;34.38;;;6.53;;
74335;SDS011;62755;-33.398;-70.572;2024-03-25T11:40:34;25.02;;;5.30;;
74335;SDS011;62755;-33.398;-70.572;2024-03-25T11:43:03;25.35;;;5.13;;
74335;SDS011;62755;-33.398;-70.572;2024-03-25T11:45:31;19.33;;;4.22;;
74335;SDS011;62755;-33.398;-70.572;2024-03-25T11:47:59;21.40;;;3.70;;
74335;SDS011;62755;-33.398;-70.572;2024-03-25T11:50:27;18.30;;;3.17;;
74335;SDS011;62755;-33.398;-70.572;2024-03-25T11:52:57;15.63;;;3.17;;
74335;SDS011;62755;-33.398;-70.572;2024-03-25T11:55:25;26.83;;;3.75;;
74335;SDS011;62755;-33.398;-70.572;2024-03-25T11:57:55;16.42;;;3.47;;
74335;SDS011;62755;-33.398;-70.572;2024-03-25T12:00:23;16.60;;;3.28;;
74335;SDS011;62755;-33.398;-70.572;2024-03-25T12:02:51;17.05;;;4.22;;
74335;SDS011;62755;-33.398;-70.572;2024-03-25T12:05:20;11.73;;;2.95;;
74335;SDS011;62755;-33.398;-70.572;2024-03-25T12:07:48;10.98;;;2.95;;
74335;SDS011;62755;-33.398;-70.572;2024-03-25T12:10:18;11.18;;;2.85;;
74335;SDS011;62755;-33.398;-70.572;2024-03-25T12:13:04;15.80;;;3.90;;
74335;SDS011;62755;-33.398;-70.572;2024-03-25T12:15:32;27.00;;;4.00;;
74335;SDS011;62755;-33.398;-70.572;2024-03-25T12:18:00;15.80;;;3.75;;
74335;SDS011;62755;-33.398;-70.572;2024-03-25T12:20:28;11.60;;;3.13;;
74335;SDS011;62755;-33.398;-70.572;2024-03-25T12:22:58;17.58;;;3.92;;
74335;SDS011;62755;-33.398;-70.572;2024-03-25T12:25:29;23.92;;;3.53;;
74335;SDS011;62755;-33.398;-70.572;2024-03-25T12:27:58;24.52;;;3.65;;
74335;SDS011;62755;-33.398;-70.572;2024-03-25T12:30:26;13.70;;;3.42;;
74335;SDS011;62755;-33.398;-70.572;2024-03-25T12:32:54;11.40;;;2.92;;
74335;SDS011;62755;-33.398;-70.572;2024-03-25T12:35:22;14.50;;;2.92;;
74335;SDS011;62755;-33.398;-70.572;2024-03-25T12:37:50;16.77;;;2.70;;
74335;SDS011;62755;-33.398;-70.572;2024-03-25T12:40:25;9.18;;;2.67;;
74335;SDS011;62755;-33.398;-70.572;2024-03-25T12:42:56;9.82;;;3.28;;
74335;SDS011;62755;-33.398;-70.572;2024-03-25T12:45:24;18.33;;;3.22;;
74335;SDS011;62755;-33.398;-70.572;2024-03-25T12:47:52;16.08;;;2.60;;
74335;SDS011;62755;-33.398;-70.572;2024-03-25T12:50:20;16.98;;;3.25;;
74335;SDS011;62755;-33.398;-70.572;2024-03-25T12:52:48;14.35;;;3.15;;
74335;SDS011;62755;-33.398;-70.572;2024-03-25T12:55:16;18.13;;;3.60;;
74335;SDS011;62755;-33.398;-70.572;2024-03-25T12:57:44;17.75;;;3.58;;
74335;SDS011;62755;-33.398;-70.572;2024-03-25T13:00:15;19.60;;;3.53;;
74335;SDS011;62755;-33.398;-70.572;2024-03-25T13:02:44;15.27;;;3.80;;
74335;SDS011;62755;-33.398;-70.572;2024-03-25T13:05:12;24.90;;;4.30;;
74335;SDS011;62755;-33.398;-70.572;2024-03-25T13:07:39;19.75;;;4.05;;
74335;SDS011;62755;-33.398;-70.572;2024-03-25T13:10:08;18.17;;;3.97;;
74335;SDS011;62755;-33.398;-70.572;2024-03-25T13:12:36;21.52;;;4.68;;
74335;SDS011;62755;-33.398;-70.572;2024-03-25T13:15:04;25.88;;;4.68;;
74335;SDS011;62755;-33.398;-70.572;2024-03-25T13:17:35;16.58;;;5.03;;
74335;SDS011;62755;-33.398;-70.572;2024-03-25T13:20:03;20.58;;;5.20;;
74335;SDS011;62755;-33.398;-70.572;2024-03-25T13:22:31;18.73;;;5.10;;
74335;SDS011;62755;-33.398;-70.572;2024-03-25T13:24:59;26.38;;;5.78;;
74335;SDS011;62755;-33.398;-70.572;2024-03-25T13:27:27;23.38;;;5.28;;
74335;SDS011;62755;-33.398;-70.572;2024-03-25T13:29:55;20.40;;;4.60;;
74335;SDS011;62755;-33.398;-70.572;2024-03-25T13:32:24;26.80;;;5.35;;
74335;SDS011;62755;-33.398;-70.572;2024-03-25T13:34:53;18.73;;;5.45;;
74335;SDS011;62755;-33.398;-70.572;2024-03-25T13:37:21;13.57;;;4.57;;
74335;SDS011;62755;-33.398;-70.572;2024-03-25T13:39:50;18.83;;;4.50;;
74335;SDS011;62755;-33.398;-70.572;2024-03-25T13:42:18;25.35;;;5.20;;
74335;SDS011;62755;-33.398;-70.572;2024-03-25T13:44:46;13.73;;;5.47;;
74335;SDS011;62755;-33.398;-70.572;2024-03-25T13:47:14;20.65;;;4.60;;
74335;SDS011;62755;-33.398;-70.572;2024-03-25T13:49:42;13.73;;;4.50;;
74335;SDS011;62755;-33.398;-70.572;2024-03-25T13:52:11;22.63;;;4.75;;
74335;SDS011;62755;-33.398;-70.572;2024-03-25T13:54:39;24.85;;;4.85;;
74335;SDS011;62755;-33.398;-70.572;2024-03-25T13:57:07;13.73;;;4.35;;
74335;SDS011;62755;-33.398;-70.572;2024-03-25T13:59:35;28.02;;;5.45;;
74335;SDS011;62755;-33.398;-70.572;2024-03-25T14:02:03;13.95;;;5.00;;
74335;SDS011;62755;-33.398;-70.572;2024-03-25T14:04:31;13.38;;;4.65;;
74335;SDS011;62755;-33.398;-70.572;2024-03-25T14:06:59;21.70;;;5.47;;
74335;SDS011;62755;-33.398;-70.572;2024-03-25T14:09:29;18.25;;;5.25;;
74335;SDS011;62755;-33.398;-70.572;2024-03-25T14:11:57;18.08;;;5.63;;